createdAt,value
2023-04-17T00:00:12.804Z,70.70
2023-04-17T00:02:41.463Z,70.10
2023-04-17T00:05:10.305Z,70.20
2023-04-17T00:07:43.109Z,70.30
2023-04-17T00:10:11.171Z,70.30
2023-04-17T00:12:39.080Z,70.80
2023-04-17T00:15:07.813Z,70.30
2023-04-17T00:17:35.481Z,69.90
2023-04-17T00:20:06.786Z,70.50
2023-04-17T00:22:34.294Z,70.30
2023-04-17T00:25:01.861Z,69.90
2023-04-17T00:27:30.178Z,70.10
2023-04-17T00:29:57.753Z,70.60
2023-04-17T00:32:26.178Z,71.00
2023-04-17T00:34:55.688Z,71.40
2023-04-17T00:37:23.532Z,70.40
2023-04-17T00:39:51.905Z,70.60
2023-04-17T00:42:19.928Z,71.00
2023-04-17T00:44:48.355Z,70.70
2023-04-17T00:47:16.093Z,71.20
2023-04-17T00:49:44.675Z,70.70
2023-04-17T00:52:12.621Z,70.00
2023-04-17T00:54:41.714Z,70.50
2023-04-17T00:57:09.812Z,69.80
2023-04-17T00:59:38.542Z,70.20
2023-04-17T01:02:06.307Z,70.10
2023-04-17T01:04:34.087Z,70.20
2023-04-17T01:07:02.656Z,69.40
2023-04-17T01:09:33.595Z,70.20
2023-04-17T01:12:33.778Z,69.80
2023-04-17T01:15:02.064Z,69.60
2023-04-17T01:17:29.817Z,69.60
2023-04-17T01:19:58.655Z,69.50
2023-04-17T01:22:26.348Z,69.70
2023-04-17T01:24:53.993Z,69.90
2023-04-17T01:27:25.906Z,69.90
2023-04-17T01:30:16.363Z,69.70
2023-04-17T01:38:25.696Z,69.30
2023-04-17T01:40:53.719Z,69.40
2023-04-17T01:43:22.503Z,69.80
2023-04-17T01:49:33.350Z,69.00
2023-04-17T01:52:03.020Z,68.80
2023-04-17T01:54:31.168Z,68.60
2023-04-17T01:57:03.223Z,68.60
2023-04-17T01:59:31.707Z,68.40
2023-04-17T02:04:34.061Z,68.00
2023-04-17T02:07:03.983Z,68.00
2023-04-17T02:09:33.387Z,67.80
2023-04-17T02:12:02.303Z,67.80
2023-04-17T02:14:32.462Z,67.70
2023-04-17T02:17:01.532Z,67.80
2023-04-17T02:19:29.747Z,67.70
2023-04-17T02:21:57.547Z,67.70
2023-04-17T02:24:26.717Z,67.50
2023-04-17T02:26:55.121Z,67.20
2023-04-17T02:29:29.200Z,67.20
2023-04-17T02:32:01.403Z,67.20
2023-04-17T02:34:32.506Z,67.20
2023-04-17T02:37:03.003Z,67.10
2023-04-17T02:42:29.535Z,66.80
2023-04-17T02:44:57.891Z,66.80
2023-04-17T02:47:27.566Z,66.70
2023-04-17T02:49:58.255Z,66.60
2023-04-17T02:52:26.035Z,66.40
2023-04-17T02:54:54.599Z,65.90
2023-04-17T02:57:22.331Z,66.10
2023-04-17T03:03:22.497Z,66.00
2023-04-17T03:05:50.212Z,65.70
2023-04-17T03:08:17.864Z,65.40
2023-04-17T03:13:39.113Z,65.50
2023-04-17T03:16:07.960Z,65.50
2023-04-17T03:18:36.393Z,65.40
2023-04-17T03:21:07.170Z,64.90
2023-04-17T03:23:34.989Z,64.40
2023-04-17T03:26:11.495Z,64.30
2023-04-17T03:28:44.467Z,64.80
2023-04-17T03:31:24.199Z,64.30
2023-04-17T03:33:52.118Z,64.50
2023-04-17T03:36:19.704Z,64.60
2023-04-17T03:38:47.466Z,64.30
2023-04-17T03:41:15.925Z,64.00
2023-04-17T03:43:44.524Z,64.40
2023-04-17T03:46:15.680Z,64.30
2023-04-17T03:48:46.870Z,64.50
2023-04-17T03:51:27.793Z,64.10
2023-04-17T03:53:55.515Z,64.20
2023-04-17T03:56:23.226Z,64.20
2023-04-17T03:58:51.025Z,63.70
2023-04-17T04:01:18.726Z,62.40
2023-04-17T04:03:47.504Z,63.80
2023-04-17T04:06:15.223Z,62.40
2023-04-17T04:09:15.786Z,62.10
2023-04-17T04:14:57.224Z,63.10
2023-04-17T04:17:24.967Z,62.30
2023-04-17T04:19:53.162Z,61.80
2023-04-17T04:22:22.097Z,62.70
2023-04-17T04:24:49.784Z,62.10
2023-04-17T04:27:18.271Z,61.30
2023-04-17T04:29:49.112Z,62.00
2023-04-17T04:34:52.508Z,61.50
2023-04-17T04:37:22.622Z,61.70
2023-04-17T04:39:54.294Z,61.80
2023-04-17T04:44:58.441Z,60.50
2023-04-17T04:47:34.007Z,61.00
2023-04-17T04:50:06.235Z,60.20
2023-04-17T04:52:42.678Z,61.00
2023-04-17T04:55:18.239Z,58.50
2023-04-17T05:00:18.487Z,60.30
2023-04-17T05:02:46.384Z,61.20
2023-04-17T05:05:14.359Z,58.90
2023-04-17T05:07:46.328Z,59.70
2023-04-17T05:10:14.066Z,60.40
2023-04-17T05:12:42.232Z,59.30
2023-04-17T05:15:10.174Z,59.10
2023-04-17T05:17:48.220Z,58.40
2023-04-17T05:20:26.528Z,59.90
2023-04-17T05:22:54.299Z,59.50
2023-04-17T05:25:23.701Z,59.00
2023-04-17T05:27:51.507Z,58.70
2023-04-17T05:30:19.122Z,57.20
2023-04-17T05:32:48.803Z,57.70
2023-04-17T05:35:19.638Z,57.60
2023-04-17T05:38:19.857Z,59.20
2023-04-17T05:40:48.480Z,59.00
2023-04-17T05:43:19.209Z,58.70
2023-04-17T05:45:49.908Z,58.20
2023-04-17T05:48:17.646Z,57.70
2023-04-17T05:53:45.945Z,57.70
2023-04-17T05:56:17.473Z,57.60
2023-04-17T05:58:45.517Z,57.10
2023-04-17T06:01:17.439Z,57.50
2023-04-17T06:03:47.757Z,57.00
2023-04-17T06:06:22.322Z,57.70
2023-04-17T06:08:58.460Z,57.30
2023-04-17T06:11:32.757Z,57.80
2023-04-17T06:14:00.413Z,57.50
2023-04-17T06:16:28.334Z,56.50
2023-04-17T06:18:57.372Z,57.50
2023-04-17T06:21:25.739Z,56.80
2023-04-17T06:23:54.072Z,57.00
2023-04-17T06:26:22.430Z,57.30
2023-04-17T06:28:58.483Z,56.00
2023-04-17T06:31:33.689Z,56.30
2023-04-17T06:34:02.730Z,57.80
2023-04-17T06:36:34.066Z,57.20
2023-04-17T06:39:03.599Z,56.60
2023-04-17T06:41:35.986Z,55.10
2023-04-17T06:44:14.075Z,57.60
2023-04-17T06:46:42.151Z,55.50
2023-04-17T06:49:11.651Z,55.80
2023-04-17T06:51:39.806Z,56.30
2023-04-17T06:54:15.702Z,56.90
2023-04-17T06:56:46.282Z,55.60
2023-04-17T06:59:14.119Z,53.40
2023-04-17T07:01:42.646Z,55.60
2023-04-17T07:04:11.110Z,54.90
2023-04-17T07:06:40.602Z,54.60
2023-04-17T07:09:09.209Z,53.00
2023-04-17T07:11:36.866Z,54.40
2023-04-17T07:14:04.600Z,55.40
2023-04-17T07:16:33.153Z,53.60
2023-04-17T07:19:16.681Z,54.10
2023-04-17T07:21:45.060Z,54.00
2023-04-17T07:24:24.020Z,54.70
2023-04-17T07:29:38.424Z,54.00
2023-04-17T07:32:09.188Z,55.20
2023-04-17T07:34:41.460Z,55.10
2023-04-17T07:37:09.148Z,55.90
2023-04-17T07:39:36.852Z,55.80
2023-04-17T07:42:08.032Z,54.70
2023-04-17T07:44:36.997Z,54.80
2023-04-17T07:47:04.722Z,54.40
2023-04-17T07:49:32.727Z,55.80
2023-04-17T07:52:00.445Z,53.50
2023-04-17T07:54:28.108Z,52.80
2023-04-17T07:56:58.558Z,53.50
2023-04-17T07:59:26.204Z,54.90
2023-04-17T08:01:55.113Z,54.60
2023-04-17T08:04:22.948Z,54.30
2023-04-17T08:06:51.033Z,53.90
2023-04-17T08:09:18.647Z,53.70
2023-04-17T08:11:56.915Z,54.50
2023-04-17T08:14:26.336Z,50.70
2023-04-17T08:16:56.733Z,54.40
2023-04-17T08:19:25.243Z,54.50
2023-04-17T08:22:01.575Z,52.90
2023-04-17T08:24:32.086Z,55.60
2023-04-17T08:26:59.730Z,54.80
2023-04-17T08:29:27.796Z,53.50
2023-04-17T08:32:15.003Z,53.70
2023-04-17T08:34:48.448Z,52.60
2023-04-17T08:37:16.119Z,55.10
2023-04-17T08:39:44.778Z,54.40
2023-04-17T08:42:18.888Z,54.00
2023-04-17T08:44:46.942Z,55.20
2023-04-17T08:47:15.317Z,54.90
2023-04-17T08:49:45.986Z,52.70
2023-04-17T08:52:18.131Z,52.50
2023-04-17T08:54:48.983Z,53.00
2023-04-17T08:57:18.484Z,54.70
2023-04-17T08:59:47.306Z,55.20
2023-04-17T09:02:56.542Z,54.50
2023-04-17T09:05:31.585Z,53.30
2023-04-17T09:08:21.038Z,54.50
2023-04-17T09:10:50.378Z,54.30
2023-04-17T09:13:20.397Z,54.40
2023-04-17T09:16:04.125Z,54.70
2023-04-17T09:18:36.470Z,54.30
2023-04-17T09:21:05.166Z,54.80
2023-04-17T09:23:48.772Z,55.00
2023-04-17T09:26:18.688Z,54.00
2023-04-17T09:29:11.589Z,54.10
2023-04-17T09:31:41.297Z,54.60
2023-04-17T09:34:12.087Z,52.80
2023-04-17T09:36:42.554Z,54.30
2023-04-17T09:42:05.866Z,54.10
2023-04-17T09:44:37.222Z,53.40
2023-04-17T09:47:05.670Z,54.10
2023-04-17T09:49:49.767Z,54.00
2023-04-17T09:52:18.050Z,54.70
2023-04-17T09:54:54.223Z,53.90
2023-04-17T09:57:22.252Z,53.30
2023-04-17T09:59:50.336Z,53.50
2023-04-17T10:02:19.269Z,53.80
2023-04-17T10:04:55.320Z,54.80
2023-04-17T10:07:25.084Z,55.20
2023-04-17T10:09:52.770Z,54.70
2023-04-17T10:12:22.063Z,54.90
2023-04-17T10:14:51.477Z,55.00
2023-04-17T10:17:28.388Z,54.20
2023-04-17T10:19:56.140Z,54.90
2023-04-17T10:22:27.300Z,54.60
2023-04-17T10:25:13.561Z,55.50
2023-04-17T10:27:42.284Z,55.00
2023-04-17T10:30:12.341Z,55.40
2023-04-17T10:32:40.914Z,54.90
2023-04-17T10:35:08.782Z,55.10
2023-04-17T10:37:48.825Z,55.00
2023-04-17T10:40:32.028Z,55.20
2023-04-17T10:43:06.126Z,54.70
2023-04-17T10:45:53.044Z,55.10
2023-04-17T10:48:38.440Z,55.70
2023-04-17T10:51:25.166Z,55.80
2023-04-17T10:53:57.273Z,55.80
2023-04-17T10:56:41.744Z,55.70
2023-04-17T10:59:10.890Z,55.70
2023-04-17T11:01:39.848Z,55.80
2023-04-17T11:04:08.348Z,55.60
2023-04-17T11:06:40.570Z,56.10
2023-04-17T11:09:08.781Z,55.80
2023-04-17T11:11:45.051Z,55.80
2023-04-17T11:14:17.799Z,56.10
2023-04-17T11:16:46.483Z,55.80
2023-04-17T11:19:24.509Z,55.70
2023-04-17T11:21:53.900Z,56.10
2023-04-17T11:24:27.806Z,56.00
2023-04-17T11:26:56.403Z,56.20
2023-04-17T11:29:25.679Z,56.20
2023-04-17T11:31:55.045Z,56.00
2023-04-17T11:34:22.978Z,56.20
2023-04-17T11:37:08.288Z,56.30
2023-04-17T11:39:35.904Z,56.50
2023-04-17T11:42:04.044Z,56.60
2023-04-17T11:44:31.691Z,56.70
2023-04-17T11:46:59.535Z,56.60
2023-04-17T11:49:29.029Z,56.50
2023-04-17T11:51:57.811Z,56.90
2023-04-17T11:54:29.404Z,57.00
2023-04-17T11:57:00.072Z,56.90
2023-04-17T11:59:32.010Z,57.50
2023-04-17T12:02:01.252Z,57.00
2023-04-17T12:04:35.112Z,57.00
2023-04-17T12:07:03.555Z,57.00
2023-04-17T12:09:34.622Z,57.00
2023-04-17T12:12:04.647Z,56.70
2023-04-17T12:14:33.699Z,56.90
2023-04-17T12:17:01.503Z,57.00
2023-04-17T12:19:30.043Z,57.00
2023-04-17T12:21:59.451Z,56.90
2023-04-17T12:24:27.466Z,57.10
2023-04-17T12:26:55.162Z,57.10
2023-04-17T12:29:36.136Z,57.10
2023-04-17T12:32:11.110Z,57.20
2023-04-17T12:34:38.788Z,57.40
2023-04-17T12:37:06.607Z,57.50
2023-04-17T12:39:34.232Z,57.50
2023-04-17T12:42:01.913Z,57.50
2023-04-17T12:44:29.521Z,57.50
2023-04-17T12:46:57.997Z,57.60
2023-04-17T12:49:25.652Z,57.60
2023-04-17T12:51:53.306Z,57.80
2023-04-17T12:54:20.945Z,57.80
2023-04-17T12:56:51.075Z,57.80
2023-04-17T12:59:18.644Z,57.80
2023-04-17T13:01:46.699Z,58.00
2023-04-17T13:04:15.753Z,58.00
2023-04-17T13:06:43.795Z,58.00
2023-04-17T13:09:12.535Z,58.00
2023-04-17T13:11:40.230Z,58.20
2023-04-17T13:14:09.349Z,58.10
2023-04-17T13:16:36.940Z,58.00
2023-04-17T13:19:05.925Z,58.10
2023-04-17T13:21:33.483Z,58.10
2023-04-17T13:24:01.840Z,58.20
2023-04-17T13:26:29.461Z,58.20
2023-04-17T13:28:56.997Z,58.20
2023-04-17T13:31:27.127Z,58.50
2023-04-17T13:33:54.721Z,58.50
2023-04-17T13:36:22.273Z,58.40
2023-04-17T13:38:50.655Z,58.60
2023-04-17T13:41:18.217Z,58.50
2023-04-17T13:43:45.796Z,58.50
2023-04-17T13:46:16.941Z,58.60
2023-04-17T13:48:44.630Z,58.70
2023-04-17T13:51:12.497Z,58.80
2023-04-17T13:53:40.993Z,58.70
2023-04-17T13:56:08.598Z,58.80
2023-04-17T13:58:36.207Z,58.80
2023-04-17T14:01:04.045Z,58.90
2023-04-17T14:03:31.757Z,58.80
2023-04-17T14:05:59.471Z,58.90
2023-04-17T14:08:26.989Z,59.00
2023-04-17T14:10:54.573Z,59.00
2023-04-17T14:13:22.305Z,59.00
2023-04-17T14:15:52.633Z,59.00
2023-04-17T14:18:20.210Z,59.10
2023-04-17T14:20:48.876Z,59.10
2023-04-17T14:23:16.419Z,59.20
2023-04-17T14:25:45.018Z,59.30
2023-04-17T14:28:12.846Z,59.30
2023-04-17T14:30:40.496Z,59.30
2023-04-17T14:33:08.006Z,59.30
2023-04-17T14:35:35.708Z,59.40
2023-04-17T14:38:05.201Z,59.50
2023-04-17T14:40:33.192Z,59.50
2023-04-17T14:43:00.824Z,59.50
2023-04-17T14:45:28.533Z,59.60
2023-04-17T14:47:57.015Z,59.60
2023-04-17T14:50:24.598Z,59.70
2023-04-17T14:52:52.510Z,59.70
2023-04-17T14:55:20.037Z,59.90
2023-04-17T14:57:48.484Z,59.80
2023-04-17T15:00:16.547Z,59.90
2023-04-17T15:02:44.219Z,59.80
2023-04-17T15:05:11.884Z,59.90
2023-04-17T15:07:39.433Z,60.00
2023-04-17T15:10:07.520Z,60.00
2023-04-17T15:12:35.117Z,60.00
2023-04-17T15:15:02.775Z,60.00
2023-04-17T15:17:30.350Z,60.20
2023-04-17T15:20:00.469Z,60.20
2023-04-17T15:22:28.065Z,60.30
2023-04-17T15:24:55.675Z,60.20
2023-04-17T15:27:23.278Z,60.30
2023-04-17T15:29:50.965Z,60.40
2023-04-17T15:32:19.519Z,60.40
2023-04-17T15:34:47.683Z,60.50
2023-04-17T15:37:15.319Z,60.60
2023-04-17T15:39:42.986Z,60.80
2023-04-17T15:42:12.177Z,60.80
2023-04-17T15:44:41.092Z,61.00
2023-04-17T15:47:10.051Z,60.80
2023-04-17T15:49:38.420Z,60.90
2023-04-17T15:52:07.372Z,60.90
2023-04-17T15:54:34.921Z,61.00
2023-04-17T15:57:02.508Z,61.00
2023-04-17T15:59:32.266Z,61.30
2023-04-17T16:01:59.969Z,61.00
2023-04-17T16:04:27.786Z,61.30
2023-04-17T16:06:55.468Z,61.70
2023-04-17T16:09:24.699Z,61.60
2023-04-17T16:11:52.242Z,61.50
2023-04-17T16:14:19.870Z,61.80
2023-04-17T16:16:47.455Z,61.40
2023-04-17T16:19:15.151Z,61.40
2023-04-17T16:21:43.071Z,61.40
2023-04-17T16:24:10.994Z,61.60
2023-04-17T16:26:38.650Z,61.70
2023-04-17T16:29:06.179Z,61.90
2023-04-17T16:31:34.624Z,61.70
2023-04-17T16:34:03.204Z,62.60
2023-04-17T16:36:32.144Z,61.70
2023-04-17T16:41:47.515Z,61.80
2023-04-17T16:44:15.188Z,61.70
2023-04-17T16:47:02.924Z,62.10
2023-04-17T16:49:30.353Z,62.30
2023-04-17T16:54:42.789Z,62.10
2023-04-17T16:57:12.174Z,62.20
2023-04-17T16:59:40.498Z,62.30
2023-04-17T17:02:08.105Z,62.20
2023-04-17T17:04:36.648Z,62.30
2023-04-17T17:07:04.221Z,62.50
2023-04-17T17:09:31.781Z,62.40
2023-04-17T17:11:59.360Z,62.80
2023-04-17T17:14:26.952Z,62.60
2023-04-17T17:16:54.698Z,62.60
2023-04-17T17:19:22.365Z,62.50
2023-04-17T17:21:50.234Z,62.50
2023-04-17T17:27:00.988Z,62.60
2023-04-17T17:29:28.592Z,62.60
2023-04-17T17:31:57.016Z,62.50
2023-04-17T17:34:26.594Z,62.60
2023-04-17T17:39:36.895Z,62.80
2023-04-17T17:42:09.020Z,63.30
2023-04-17T17:44:36.766Z,63.20
2023-04-17T17:47:06.297Z,62.90
2023-04-17T17:49:35.154Z,62.90
2023-04-17T17:52:02.675Z,63.30
2023-04-17T17:54:30.230Z,63.30
2023-04-17T17:56:58.025Z,63.20
2023-04-17T17:59:25.553Z,63.30
2023-04-17T18:01:53.336Z,63.60
2023-04-17T18:04:21.363Z,63.30
2023-04-17T18:06:49.133Z,63.20
2023-04-17T18:09:34.338Z,63.90
2023-04-17T18:12:03.940Z,64.10
2023-04-17T18:14:32.747Z,63.60
2023-04-17T18:17:01.175Z,63.80
2023-04-17T18:19:28.713Z,63.50
2023-04-17T18:24:47.710Z,63.90
2023-04-17T18:27:15.312Z,63.80
2023-04-17T18:29:42.957Z,63.80
2023-04-17T18:32:10.614Z,63.60
2023-04-17T18:34:38.208Z,64.00
2023-04-17T18:37:06.833Z,64.30
2023-04-17T18:39:34.481Z,64.10
2023-04-17T18:42:02.783Z,64.40
2023-04-17T18:44:30.327Z,64.50
2023-04-17T18:46:57.940Z,64.90
2023-04-17T18:49:27.311Z,64.10
2023-04-17T18:51:54.884Z,64.10
2023-04-17T18:57:04.734Z,64.40
2023-04-17T18:59:32.277Z,64.30
2023-04-17T19:01:59.860Z,64.40
2023-04-17T19:04:30.543Z,64.70
2023-04-17T19:07:00.598Z,65.20
2023-04-17T19:09:28.168Z,65.00
2023-04-17T19:11:56.444Z,64.70
2023-04-17T19:14:24.915Z,65.00
2023-04-17T19:16:53.564Z,65.70
2023-04-17T19:19:21.996Z,65.50
2023-04-17T19:21:49.636Z,65.10
2023-04-17T19:24:17.165Z,65.20
2023-04-17T19:26:48.905Z,65.90
2023-04-17T19:29:17.486Z,66.20
2023-04-17T19:31:45.283Z,66.70
2023-04-17T19:34:12.939Z,66.30
2023-04-17T19:36:40.531Z,65.60
2023-04-17T19:39:08.178Z,65.20
2023-04-17T19:41:36.123Z,65.80
2023-04-17T19:44:03.889Z,65.60
2023-04-17T19:46:31.514Z,66.10
2023-04-17T19:48:59.380Z,65.30
2023-04-17T19:51:26.934Z,65.90
2023-04-17T19:53:54.557Z,65.60
2023-04-17T19:56:22.161Z,65.60
2023-04-17T19:58:53.956Z,66.00
2023-04-17T20:01:21.664Z,66.00
2023-04-17T20:03:49.452Z,66.00
2023-04-17T20:06:17.088Z,65.40
2023-04-17T20:08:44.752Z,66.60
2023-04-17T20:11:12.501Z,66.10
2023-04-17T20:13:40.559Z,65.70
2023-04-17T20:16:08.123Z,65.80
2023-04-17T20:18:37.579Z,66.00
2023-04-17T20:21:06.623Z,67.10
2023-04-17T20:23:34.252Z,67.20
2023-04-17T20:26:03.509Z,67.20
2023-04-17T20:28:31.254Z,67.60
2023-04-17T20:31:07.986Z,67.20
2023-04-17T20:33:35.833Z,66.70
2023-04-17T20:36:03.528Z,66.90
2023-04-17T20:38:31.879Z,67.40
2023-04-17T20:41:00.265Z,66.00
2023-04-17T20:43:27.824Z,66.50
2023-04-17T20:45:55.389Z,66.70
2023-04-17T20:48:23.031Z,67.60
2023-04-17T20:50:50.737Z,67.60
2023-04-17T20:53:18.535Z,66.90
2023-04-17T20:55:47.253Z,67.10
2023-04-17T20:58:14.838Z,66.80
2023-04-17T21:00:54.404Z,67.60
2023-04-17T21:03:30.381Z,67.50
2023-04-17T21:05:58.180Z,67.40
2023-04-17T21:08:25.812Z,67.20
2023-04-17T21:10:53.404Z,67.70
2023-04-17T21:13:21.202Z,67.80
2023-04-17T21:18:31.236Z,68.50
2023-04-17T21:20:58.824Z,68.50
2023-04-17T21:23:26.375Z,68.50
2023-04-17T21:25:55.116Z,68.50
2023-04-17T21:28:22.801Z,68.50
2023-04-17T21:30:50.691Z,68.50
2023-04-17T21:33:18.472Z,68.60
2023-04-17T21:35:46.037Z,68.80
2023-04-17T21:38:13.638Z,68.80
2023-04-17T21:40:50.582Z,68.60
2023-04-17T21:43:20.309Z,68.80
2023-04-17T21:45:48.005Z,68.90
2023-04-17T21:48:24.839Z,68.90
2023-04-17T21:50:53.026Z,69.00
2023-04-17T21:53:20.678Z,68.30
2023-04-17T21:55:48.249Z,68.50
2023-04-17T21:58:16.644Z,69.00
2023-04-17T22:00:44.293Z,69.20
2023-04-17T22:03:11.996Z,69.60
2023-04-17T22:05:40.540Z,69.00
2023-04-17T22:08:08.158Z,69.40
2023-04-17T22:10:36.822Z,69.10
2023-04-17T22:13:04.438Z,69.00
2023-04-17T22:15:32.087Z,69.60
2023-04-17T22:17:59.704Z,69.80
2023-04-17T22:20:36.904Z,69.40
2023-04-17T22:23:04.538Z,69.90
2023-04-17T22:25:33.670Z,70.10
2023-04-17T22:28:02.092Z,69.90
2023-04-17T22:30:29.704Z,70.10
2023-04-17T22:32:59.086Z,69.90
2023-04-17T22:35:27.200Z,68.90
2023-04-17T22:37:54.848Z,70.60
2023-04-17T22:43:07.993Z,69.60
2023-04-17T22:45:36.399Z,69.10
2023-04-17T22:48:04.124Z,68.70
2023-04-17T22:50:32.595Z,69.90
2023-04-17T22:53:00.999Z,70.20
2023-04-17T22:55:29.394Z,70.60
2023-04-17T22:57:56.940Z,70.40
2023-04-17T23:00:25.585Z,70.40
2023-04-17T23:02:53.287Z,70.80
2023-04-17T23:08:03.222Z,70.60
2023-04-17T23:10:30.882Z,71.20
2023-04-17T23:12:58.702Z,69.40
2023-04-17T23:15:26.591Z,70.40
2023-04-17T23:17:54.969Z,70.20
2023-04-17T23:20:25.831Z,70.40
2023-04-17T23:22:53.582Z,70.70
2023-04-17T23:25:21.377Z,71.80
2023-04-17T23:27:49.055Z,70.60
2023-04-17T23:30:16.817Z,71.90
2023-04-17T23:32:45.237Z,71.40
2023-04-17T23:35:12.832Z,71.60
2023-04-17T23:37:49.167Z,70.70
2023-04-17T23:40:17.645Z,70.00
2023-04-17T23:42:46.049Z,70.40
2023-04-17T23:45:13.679Z,71.00
2023-04-17T23:47:41.339Z,70.10
2023-04-17T23:50:12.715Z,70.90
2023-04-17T23:52:41.464Z,69.60
2023-04-17T23:55:09.260Z,69.80
2023-04-17T23:57:38.199Z,70.80
